RYR4573 LIRA-LFBT
Flight info
| Callsign | RYR4573 |
|---|---|
| Flight time | 1h 30m |
| Altitude | 36000 |
| Route | GILIO DCT MIRSA A3 STP DCT PADKO UY342 BULTO Y341 SALIN DCT YACIM DCT LOMRA DCT TEPTI |
| Aircraft | B738/M-SDE2E3FGHIRWXY/LB1 |
Departure
| Time | 2026-04-24 09:59 |
|---|---|
| Airport | Ciampino–G. B. Pastine International Airport (LIRA) |
Arrival
| Time | 2026-04-24 11:29 |
|---|---|
| Airport | Tarbes-Lourdes-Pyrénées Airport (LFBT) |
| Time | Latitude | Longitude | Altitude | Speed | Heading |
|---|---|---|---|---|---|
| 2026-04-24 09:35 | 41.80012 | 12.58928 | 378 ft | 0 kts | 122° |
| 2026-04-24 09:51 | 41.80023 | 12.58905 | 377 ft | 4 kts | 135° |
| 2026-04-24 09:52 | 41.80040 | 12.58887 | 376 ft | 4 kts | 140° |
| 2026-04-24 09:52 | 41.80051 | 12.58863 | 375 ft | 4 kts | 73° |
| 2026-04-24 09:52 | 41.80039 | 12.58835 | 375 ft | 4 kts | 52° |
| 2026-04-24 09:52 | 41.80033 | 12.58824 | 375 ft | 1 kts | 52° |
| 2026-04-24 09:55 | 41.80035 | 12.58829 | 375 ft | 3 kts | 52° |
| 2026-04-24 09:56 | 41.80072 | 12.58893 | 374 ft | 12 kts | 52° |
| 2026-04-24 09:56 | 41.80127 | 12.58988 | 374 ft | 13 kts | 52° |
| 2026-04-24 09:56 | 41.80183 | 12.59081 | 375 ft | 13 kts | 39° |
| 2026-04-24 09:56 | 41.80271 | 12.59049 | 371 ft | 15 kts | 332° |
| 2026-04-24 09:57 | 41.80370 | 12.58982 | 368 ft | 16 kts | 332° |
| 2026-04-24 09:57 | 41.80472 | 12.58911 | 363 ft | 18 kts | 333° |
| 2026-04-24 09:57 | 41.80584 | 12.58835 | 361 ft | 18 kts | 333° |
| 2026-04-24 09:57 | 41.80685 | 12.58766 | 362 ft | 11 kts | 334° |
| 2026-04-24 09:58 | 41.80745 | 12.58807 | 358 ft | 11 kts | 59° |
| 2026-04-24 09:58 | 41.80779 | 12.58885 | 361 ft | 3 kts | 69° |
| 2026-04-24 09:58 | 41.80767 | 12.58910 | 358 ft | 3 kts | 152° |
| 2026-04-24 09:58 | 41.80738 | 12.58930 | 361 ft | 11 kts | 152° |
| 2026-04-24 09:59 | 41.80400 | 12.59165 | 370 ft | 99 kts | 153° |
| 2026-04-24 09:59 | 41.79563 | 12.59741 | 453 ft | 168 kts | 153° |
| 2026-04-24 09:59 | 41.78442 | 12.60479 | 1250 ft | 184 kts | 154° |
| 2026-04-24 09:59 | 41.77243 | 12.61111 | 2343 ft | 187 kts | 168° |
| 2026-04-24 10:00 | 41.76030 | 12.61107 | 3613 ft | 163 kts | 194° |
| 2026-04-24 10:00 | 41.75015 | 12.60535 | 4505 ft | 164 kts | 213° |
| 2026-04-24 10:00 | 41.74075 | 12.59443 | 4821 ft | 196 kts | 231° |
| 2026-04-24 10:00 | 41.73339 | 12.57762 | 5111 ft | 222 kts | 253° |
| 2026-04-24 10:01 | 41.73186 | 12.55686 | 5710 ft | 229 kts | 280° |
| 2026-04-24 10:01 | 41.73637 | 12.53627 | 6494 ft | 232 kts | 290° |
| 2026-04-24 10:01 | 41.74158 | 12.51577 | 7384 ft | 233 kts | 289° |
| 2026-04-24 10:01 | 41.74668 | 12.49494 | 8175 ft | 238 kts | 289° |
| 2026-04-24 10:02 | 41.75172 | 12.47367 | 8968 ft | 241 kts | 289° |
| 2026-04-24 10:02 | 41.75675 | 12.45210 | 9752 ft | 245 kts | 288° |
| 2026-04-24 10:02 | 41.76180 | 12.43013 | 10542 ft | 248 kts | 289° |
| 2026-04-24 10:02 | 41.76689 | 12.40796 | 11328 ft | 251 kts | 289° |
| 2026-04-24 10:03 | 41.77201 | 12.38484 | 11783 ft | 270 kts | 289° |
| 2026-04-24 10:03 | 41.77755 | 12.35937 | 11999 ft | 298 kts | 289° |
| 2026-04-24 10:03 | 41.78356 | 12.33154 | 12208 ft | 324 kts | 288° |
| 2026-04-24 10:03 | 41.79001 | 12.30163 | 12570 ft | 343 kts | 288° |
| 2026-04-24 10:04 | 41.79671 | 12.27051 | 13275 ft | 349 kts | 288° |
| 2026-04-24 10:04 | 41.80346 | 12.23914 | 14112 ft | 351 kts | 288° |
| 2026-04-24 10:04 | 41.80926 | 12.20715 | 14928 ft | 355 kts | 284° |
| 2026-04-24 10:04 | 41.81423 | 12.17457 | 15666 ft | 359 kts | 283° |
| 2026-04-24 10:05 | 41.81901 | 12.14148 | 16406 ft | 363 kts | 283° |
| 2026-04-24 10:05 | 41.82380 | 12.10820 | 17125 ft | 366 kts | 283° |
| 2026-04-24 10:05 | 41.82869 | 12.07450 | 17825 ft | 370 kts | 283° |
| 2026-04-24 10:05 | 41.83369 | 12.04057 | 18519 ft | 373 kts | 283° |
| 2026-04-24 10:06 | 41.83878 | 12.00627 | 19140 ft | 378 kts | 283° |
| 2026-04-24 10:06 | 41.84922 | 11.93644 | 20214 ft | 390 kts | 283° |
| 2026-04-24 10:06 | 41.85459 | 11.90053 | 20762 ft | 396 kts | 283° |
| 2026-04-24 10:07 | 41.86002 | 11.86406 | 21315 ft | 401 kts | 283° |
| 2026-04-24 10:07 | 41.86549 | 11.82717 | 21833 ft | 406 kts | 283° |
| 2026-04-24 10:07 | 41.87103 | 11.78980 | 22343 ft | 411 kts | 283° |
| 2026-04-24 10:07 | 41.87662 | 11.75205 | 22830 ft | 416 kts | 283° |
| 2026-04-24 10:08 | 41.88226 | 11.71378 | 23339 ft | 420 kts | 283° |
| 2026-04-24 10:08 | 41.88796 | 11.67504 | 23786 ft | 426 kts | 283° |
| 2026-04-24 10:08 | 41.89371 | 11.63589 | 24247 ft | 430 kts | 283° |
| 2026-04-24 10:08 | 41.90201 | 11.59729 | 24690 ft | 430 kts | 298° |
| 2026-04-24 10:09 | 41.91844 | 11.56432 | 25219 ft | 424 kts | 315° |
| 2026-04-24 10:09 | 41.93864 | 11.53548 | 25774 ft | 424 kts | 317° |
| 2026-04-24 10:09 | 41.95924 | 11.50700 | 26236 ft | 427 kts | 317° |
| 2026-04-24 10:09 | 41.98007 | 11.47833 | 26657 ft | 430 kts | 317° |
| 2026-04-24 10:10 | 42.00096 | 11.44936 | 27097 ft | 432 kts | 317° |
| 2026-04-24 10:10 | 42.02186 | 11.42010 | 27538 ft | 435 kts | 317° |
| 2026-04-24 10:10 | 42.04280 | 11.39056 | 27920 ft | 438 kts | 316° |
| 2026-04-24 10:10 | 42.06381 | 11.36077 | 28307 ft | 441 kts | 316° |
| 2026-04-24 10:11 | 42.08492 | 11.33072 | 28709 ft | 443 kts | 316° |
| 2026-04-24 10:11 | 42.10611 | 11.30050 | 29109 ft | 444 kts | 316° |
| 2026-04-24 10:11 | 42.12735 | 11.27018 | 29485 ft | 446 kts | 316° |
| 2026-04-24 10:11 | 42.14873 | 11.23965 | 29823 ft | 448 kts | 316° |
| 2026-04-24 10:12 | 42.17018 | 11.20899 | 30153 ft | 451 kts | 316° |
| 2026-04-24 10:12 | 42.19166 | 11.17823 | 30477 ft | 453 kts | 316° |
| 2026-04-24 10:12 | 42.21326 | 11.14726 | 30863 ft | 453 kts | 316° |
| 2026-04-24 10:12 | 42.23483 | 11.11631 | 31318 ft | 451 kts | 316° |
| 2026-04-24 10:13 | 42.25632 | 11.08544 | 31763 ft | 450 kts | 316° |
| 2026-04-24 10:13 | 42.27776 | 11.05463 | 32149 ft | 450 kts | 316° |
| 2026-04-24 10:13 | 42.29887 | 11.02426 | 32498 ft | 450 kts | 316° |
| 2026-04-24 10:13 | 42.32053 | 10.99307 | 32905 ft | 448 kts | 317° |
| 2026-04-24 10:14 | 42.34187 | 10.96230 | 33263 ft | 448 kts | 317° |
| 2026-04-24 10:14 | 42.36308 | 10.93154 | 33600 ft | 449 kts | 315° |
| 2026-04-24 10:14 | 42.38073 | 10.89713 | 33888 ft | 455 kts | 302° |
| 2026-04-24 10:14 | 42.39586 | 10.85882 | 34267 ft | 455 kts | 300° |
| 2026-04-24 10:15 | 42.41027 | 10.82073 | 34617 ft | 454 kts | 300° |
| 2026-04-24 10:15 | 42.42455 | 10.78274 | 34959 ft | 453 kts | 300° |
| 2026-04-24 10:15 | 42.43898 | 10.74475 | 35282 ft | 452 kts | 300° |
| 2026-04-24 10:15 | 42.45348 | 10.70705 | 35615 ft | 451 kts | 301° |
| 2026-04-24 10:16 | 42.46802 | 10.66959 | 35974 ft | 449 kts | 301° |
| 2026-04-24 10:16 | 42.48263 | 10.63219 | 36184 ft | 450 kts | 301° |
| 2026-04-24 10:16 | 42.49739 | 10.59452 | 36169 ft | 454 kts | 301° |
| 2026-04-24 10:17 | 42.52696 | 10.51896 | 36165 ft | 451 kts | 301° |
| 2026-04-24 10:17 | 42.55599 | 10.44448 | 36172 ft | 446 kts | 301° |
| 2026-04-24 10:18 | 42.58496 | 10.36998 | 36189 ft | 447 kts | 301° |
| 2026-04-24 10:18 | 42.61390 | 10.29533 | 36190 ft | 448 kts | 301° |
| 2026-04-24 10:19 | 42.64291 | 10.22024 | 36186 ft | 449 kts | 301° |
| 2026-04-24 10:19 | 42.67195 | 10.14497 | 36187 ft | 450 kts | 300° |
| 2026-04-24 10:20 | 42.70097 | 10.06950 | 36182 ft | 451 kts | 300° |
| 2026-04-24 10:20 | 42.73000 | 9.99383 | 36185 ft | 451 kts | 300° |
| 2026-04-24 10:21 | 42.75900 | 9.91805 | 36184 ft | 452 kts | 300° |
| 2026-04-24 10:21 | 42.78795 | 9.84221 | 36189 ft | 452 kts | 300° |
| 2026-04-24 10:22 | 42.81653 | 9.76612 | 36177 ft | 452 kts | 296° |
| 2026-04-24 10:22 | 42.83328 | 9.68334 | 36197 ft | 455 kts | 281° |
| 2026-04-24 10:23 | 42.84381 | 9.59830 | 36180 ft | 455 kts | 282° |
| 2026-04-24 10:23 | 42.85529 | 9.51431 | 36184 ft | 454 kts | 283° |
| 2026-04-24 10:24 | 42.86711 | 9.42982 | 36190 ft | 454 kts | 283° |
| 2026-04-24 10:24 | 42.87879 | 9.34526 | 36175 ft | 454 kts | 283° |
| 2026-04-24 10:25 | 42.89036 | 9.26081 | 36182 ft | 453 kts | 282° |
| 2026-04-24 10:25 | 42.90183 | 9.17644 | 36181 ft | 452 kts | 282° |
| 2026-04-24 10:26 | 42.91135 | 9.10572 | 36182 ft | 452 kts | 282° |
| 2026-04-24 10:26 | 42.92264 | 9.02132 | 36186 ft | 452 kts | 282° |
| 2026-04-24 10:27 | 42.93384 | 8.93739 | 36188 ft | 453 kts | 282° |
| 2026-04-24 10:27 | 42.94507 | 8.85220 | 36180 ft | 453 kts | 282° |
| 2026-04-24 10:28 | 42.95608 | 8.76811 | 36187 ft | 453 kts | 283° |
| 2026-04-24 10:28 | 42.96826 | 8.68371 | 36185 ft | 453 kts | 283° |
| 2026-04-24 10:29 | 42.98061 | 8.59932 | 36182 ft | 453 kts | 283° |
| 2026-04-24 10:29 | 42.99275 | 8.51481 | 36186 ft | 454 kts | 283° |
| 2026-04-24 10:30 | 43.00477 | 8.43022 | 36183 ft | 454 kts | 283° |
| 2026-04-24 10:30 | 43.01560 | 8.34521 | 36181 ft | 455 kts | 277° |
| 2026-04-24 10:31 | 43.02158 | 8.25915 | 36183 ft | 455 kts | 279° |
| 2026-04-24 10:31 | 43.03188 | 8.17397 | 36187 ft | 454 kts | 282° |
| 2026-04-24 10:32 | 43.04336 | 8.08915 | 36179 ft | 454 kts | 282° |
| 2026-04-24 10:32 | 43.05419 | 8.00412 | 36184 ft | 454 kts | 281° |
| 2026-04-24 10:33 | 43.06464 | 7.91906 | 36191 ft | 454 kts | 281° |
| 2026-04-24 10:33 | 43.07501 | 7.83401 | 36181 ft | 453 kts | 281° |
| 2026-04-24 10:34 | 43.08542 | 7.74905 | 36183 ft | 453 kts | 281° |
| 2026-04-24 10:34 | 43.09597 | 7.66420 | 36180 ft | 452 kts | 281° |
| 2026-04-24 10:35 | 43.10645 | 7.57929 | 36170 ft | 452 kts | 281° |
| 2026-04-24 10:35 | 43.11663 | 7.49439 | 36168 ft | 452 kts | 281° |
| 2026-04-24 10:36 | 43.12665 | 7.40969 | 36169 ft | 451 kts | 281° |
| 2026-04-24 10:36 | 43.13665 | 7.32489 | 36163 ft | 451 kts | 280° |
| 2026-04-24 10:37 | 43.14658 | 7.24025 | 36170 ft | 450 kts | 280° |
| 2026-04-24 10:37 | 43.15638 | 7.15612 | 36163 ft | 450 kts | 280° |
| 2026-04-24 10:38 | 43.16618 | 7.07148 | 36162 ft | 450 kts | 280° |
| 2026-04-24 10:38 | 43.17587 | 6.98683 | 36166 ft | 450 kts | 280° |
| 2026-04-24 10:39 | 43.18545 | 6.90226 | 36166 ft | 449 kts | 280° |
| 2026-04-24 10:39 | 43.19499 | 6.81760 | 36165 ft | 449 kts | 280° |
| 2026-04-24 10:40 | 43.20447 | 6.73295 | 36167 ft | 449 kts | 279° |
| 2026-04-24 10:40 | 43.21390 | 6.64820 | 36166 ft | 449 kts | 279° |
| 2026-04-24 10:41 | 43.22102 | 6.56317 | 36164 ft | 450 kts | 273° |
| 2026-04-24 10:41 | 43.22205 | 6.47738 | 36168 ft | 450 kts | 271° |
| 2026-04-24 10:42 | 43.22245 | 6.39154 | 36167 ft | 450 kts | 271° |
| 2026-04-24 10:42 | 43.22325 | 6.30566 | 36162 ft | 450 kts | 271° |
| 2026-04-24 10:43 | 43.22431 | 6.21979 | 36170 ft | 450 kts | 271° |
| 2026-04-24 10:43 | 43.22538 | 6.13402 | 36171 ft | 450 kts | 271° |
| 2026-04-24 10:44 | 43.22638 | 6.04823 | 36175 ft | 450 kts | 271° |
| 2026-04-24 10:44 | 43.22729 | 5.96234 | 36179 ft | 450 kts | 271° |
| 2026-04-24 10:45 | 43.22813 | 5.87657 | 36175 ft | 449 kts | 271° |
| 2026-04-24 10:45 | 43.22891 | 5.79104 | 36171 ft | 448 kts | 271° |
| 2026-04-24 10:46 | 43.22962 | 5.70590 | 36169 ft | 446 kts | 271° |
| 2026-04-24 10:46 | 43.23026 | 5.62103 | 36167 ft | 444 kts | 271° |
| 2026-04-24 10:47 | 43.23084 | 5.53656 | 36174 ft | 442 kts | 271° |
| 2026-04-24 10:47 | 43.23137 | 5.45236 | 36186 ft | 441 kts | 271° |
| 2026-04-24 10:48 | 43.23182 | 5.36897 | 36180 ft | 440 kts | 271° |
| 2026-04-24 10:48 | 43.23532 | 5.28550 | 36192 ft | 438 kts | 278° |
| 2026-04-24 10:49 | 43.24416 | 5.20291 | 36179 ft | 437 kts | 279° |
| 2026-04-24 10:49 | 43.25288 | 5.12059 | 36180 ft | 436 kts | 279° |
| 2026-04-24 10:50 | 43.26103 | 5.03797 | 36183 ft | 436 kts | 278° |
| 2026-04-24 10:50 | 43.26897 | 4.95551 | 36181 ft | 436 kts | 278° |
| 2026-04-24 10:51 | 43.27618 | 4.87290 | 36183 ft | 437 kts | 275° |
| 2026-04-24 10:51 | 43.28008 | 4.78978 | 36182 ft | 436 kts | 275° |
| 2026-04-24 10:52 | 43.28353 | 4.70670 | 36184 ft | 437 kts | 272° |
| 2026-04-24 10:52 | 43.28321 | 4.62335 | 36190 ft | 437 kts | 270° |
| 2026-04-24 10:53 | 43.28194 | 4.54009 | 36184 ft | 436 kts | 270° |
| 2026-04-24 10:53 | 43.28091 | 4.45681 | 36187 ft | 436 kts | 270° |
| 2026-04-24 10:54 | 43.28009 | 4.37367 | 36180 ft | 435 kts | 270° |
| 2026-04-24 10:54 | 43.27928 | 4.29072 | 36186 ft | 434 kts | 270° |
| 2026-04-24 10:55 | 43.27841 | 4.20790 | 36184 ft | 434 kts | 270° |
| 2026-04-24 10:55 | 43.27746 | 4.12518 | 36186 ft | 433 kts | 270° |
| 2026-04-24 10:56 | 43.27647 | 4.04270 | 36184 ft | 432 kts | 270° |
| 2026-04-24 10:56 | 43.27541 | 3.96023 | 36187 ft | 432 kts | 270° |
| 2026-04-24 10:57 | 43.27430 | 3.87850 | 36181 ft | 431 kts | 270° |
| 2026-04-24 10:57 | 43.27314 | 3.79628 | 36183 ft | 430 kts | 270° |
| 2026-04-24 10:58 | 43.27191 | 3.71433 | 36184 ft | 430 kts | 270° |
| 2026-04-24 10:58 | 43.27124 | 3.63246 | 36181 ft | 428 kts | 273° |
| 2026-04-24 10:59 | 43.27483 | 3.55109 | 36184 ft | 427 kts | 276° |
| 2026-04-24 10:59 | 43.27942 | 3.46998 | 36194 ft | 426 kts | 276° |
| 2026-04-24 11:00 | 43.28361 | 3.38890 | 36179 ft | 426 kts | 275° |
| 2026-04-24 11:00 | 43.28749 | 3.30772 | 36187 ft | 426 kts | 275° |
| 2026-04-24 11:01 | 43.29117 | 3.22659 | 36188 ft | 425 kts | 275° |
| 2026-04-24 11:01 | 43.29479 | 3.14564 | 36188 ft | 424 kts | 275° |
| 2026-04-24 11:02 | 43.29835 | 3.06478 | 36180 ft | 425 kts | 275° |
| 2026-04-24 11:02 | 43.30186 | 2.98389 | 36179 ft | 424 kts | 275° |
| 2026-04-24 11:03 | 43.30532 | 2.90303 | 36011 ft | 427 kts | 275° |
| 2026-04-24 11:03 | 43.30705 | 2.86218 | 35540 ft | 427 kts | 275° |
| 2026-04-24 11:03 | 43.30876 | 2.82151 | 34961 ft | 427 kts | 275° |
| 2026-04-24 11:03 | 43.31045 | 2.78072 | 34400 ft | 428 kts | 275° |
| 2026-04-24 11:04 | 43.31210 | 2.74058 | 33815 ft | 428 kts | 275° |
| 2026-04-24 11:04 | 43.31376 | 2.69968 | 33216 ft | 429 kts | 275° |
| 2026-04-24 11:04 | 43.31541 | 2.65884 | 32592 ft | 430 kts | 275° |
| 2026-04-24 11:04 | 43.31706 | 2.61772 | 31956 ft | 431 kts | 275° |
| 2026-04-24 11:05 | 43.31869 | 2.57662 | 31386 ft | 430 kts | 275° |
| 2026-04-24 11:05 | 43.32030 | 2.53579 | 30922 ft | 427 kts | 275° |
| 2026-04-24 11:05 | 43.32187 | 2.49529 | 30451 ft | 423 kts | 275° |
| 2026-04-24 11:05 | 43.32341 | 2.45514 | 29980 ft | 420 kts | 275° |
| 2026-04-24 11:06 | 43.32494 | 2.41523 | 29513 ft | 417 kts | 275° |
| 2026-04-24 11:06 | 43.32644 | 2.37563 | 29030 ft | 413 kts | 275° |
| 2026-04-24 11:06 | 43.32792 | 2.33634 | 28566 ft | 410 kts | 275° |
| 2026-04-24 11:06 | 43.32938 | 2.29740 | 28095 ft | 407 kts | 275° |
| 2026-04-24 11:07 | 43.33221 | 2.22041 | 27169 ft | 401 kts | 275° |
| 2026-04-24 11:07 | 43.33358 | 2.18234 | 26710 ft | 397 kts | 275° |
| 2026-04-24 11:07 | 43.33494 | 2.14455 | 26252 ft | 395 kts | 275° |
| 2026-04-24 11:08 | 43.33627 | 2.10702 | 25794 ft | 391 kts | 275° |
| 2026-04-24 11:08 | 43.33758 | 2.06985 | 25339 ft | 388 kts | 275° |
| 2026-04-24 11:08 | 43.33887 | 2.03297 | 24900 ft | 385 kts | 275° |
| 2026-04-24 11:08 | 43.34014 | 1.99643 | 24453 ft | 382 kts | 275° |
| 2026-04-24 11:09 | 43.34139 | 1.96007 | 24009 ft | 379 kts | 275° |
| 2026-04-24 11:09 | 43.34262 | 1.92402 | 23570 ft | 376 kts | 275° |
| 2026-04-24 11:09 | 43.34381 | 1.88825 | 23131 ft | 374 kts | 275° |
| 2026-04-24 11:09 | 43.34523 | 1.85280 | 22693 ft | 371 kts | 276° |
| 2026-04-24 11:10 | 43.34694 | 1.81755 | 22251 ft | 368 kts | 276° |
| 2026-04-24 11:10 | 43.34874 | 1.78261 | 21812 ft | 366 kts | 276° |
| 2026-04-24 11:10 | 43.35050 | 1.74828 | 21387 ft | 364 kts | 276° |
| 2026-04-24 11:10 | 43.35228 | 1.71328 | 20947 ft | 361 kts | 276° |
| 2026-04-24 11:11 | 43.35398 | 1.67941 | 20537 ft | 359 kts | 275° |
| 2026-04-24 11:11 | 43.35565 | 1.64536 | 20101 ft | 357 kts | 275° |
| 2026-04-24 11:11 | 43.35729 | 1.61132 | 19674 ft | 355 kts | 275° |
| 2026-04-24 11:11 | 43.35891 | 1.57761 | 19264 ft | 353 kts | 275° |
| 2026-04-24 11:12 | 43.36052 | 1.54395 | 18854 ft | 351 kts | 275° |
| 2026-04-24 11:12 | 43.36211 | 1.51065 | 18431 ft | 349 kts | 275° |
| 2026-04-24 11:12 | 43.36367 | 1.47750 | 18008 ft | 347 kts | 275° |
| 2026-04-24 11:12 | 43.36521 | 1.44451 | 17598 ft | 345 kts | 275° |
| 2026-04-24 11:13 | 43.36673 | 1.41162 | 17197 ft | 343 kts | 275° |
| 2026-04-24 11:13 | 43.36822 | 1.37902 | 16787 ft | 341 kts | 275° |
| 2026-04-24 11:13 | 43.36971 | 1.34656 | 16372 ft | 340 kts | 274° |
| 2026-04-24 11:13 | 43.37118 | 1.31428 | 15960 ft | 338 kts | 274° |
| 2026-04-24 11:14 | 43.37264 | 1.28205 | 15568 ft | 336 kts | 274° |
| 2026-04-24 11:14 | 43.37361 | 1.26042 | 15291 ft | 335 kts | 274° |
| 2026-04-24 11:14 | 43.37503 | 1.22856 | 14862 ft | 334 kts | 274° |
| 2026-04-24 11:14 | 43.37644 | 1.19679 | 14476 ft | 332 kts | 274° |
| 2026-04-24 11:15 | 43.37782 | 1.16519 | 14079 ft | 330 kts | 274° |
| 2026-04-24 11:15 | 43.37921 | 1.13379 | 13694 ft | 329 kts | 274° |
| 2026-04-24 11:15 | 43.38058 | 1.10250 | 13293 ft | 328 kts | 274° |
| 2026-04-24 11:15 | 43.38193 | 1.07124 | 12890 ft | 326 kts | 274° |
| 2026-04-24 11:16 | 43.38327 | 1.04034 | 12492 ft | 319 kts | 274° |
| 2026-04-24 11:16 | 43.38455 | 1.01036 | 12107 ft | 310 kts | 273° |
| 2026-04-24 11:16 | 43.38577 | 0.98160 | 11718 ft | 301 kts | 273° |
| 2026-04-24 11:16 | 43.38697 | 0.95329 | 11377 ft | 293 kts | 273° |
| 2026-04-24 11:17 | 43.38813 | 0.92568 | 11017 ft | 286 kts | 273° |
| 2026-04-24 11:17 | 43.38926 | 0.89869 | 10692 ft | 281 kts | 273° |
| 2026-04-24 11:17 | 43.39036 | 0.87231 | 10566 ft | 274 kts | 273° |
| 2026-04-24 11:17 | 43.39146 | 0.84592 | 10456 ft | 281 kts | 272° |
| 2026-04-24 11:18 | 43.39255 | 0.81879 | 10338 ft | 287 kts | 272° |
| 2026-04-24 11:18 | 43.39367 | 0.79133 | 10217 ft | 287 kts | 273° |
| 2026-04-24 11:18 | 43.39479 | 0.76389 | 10013 ft | 289 kts | 272° |
| 2026-04-24 11:18 | 43.39591 | 0.73605 | 9716 ft | 292 kts | 272° |
| 2026-04-24 11:19 | 43.39703 | 0.70826 | 9404 ft | 290 kts | 272° |
| 2026-04-24 11:19 | 43.39813 | 0.68060 | 9107 ft | 289 kts | 272° |
| 2026-04-24 11:19 | 43.39922 | 0.65310 | 8785 ft | 288 kts | 272° |
| 2026-04-24 11:19 | 43.40030 | 0.62576 | 8495 ft | 286 kts | 272° |
| 2026-04-24 11:20 | 43.40138 | 0.59855 | 8192 ft | 284 kts | 272° |
| 2026-04-24 11:20 | 43.40243 | 0.57152 | 7913 ft | 282 kts | 272° |
| 2026-04-24 11:20 | 43.40349 | 0.54461 | 7595 ft | 281 kts | 272° |
| 2026-04-24 11:20 | 43.40451 | 0.51778 | 7307 ft | 280 kts | 272° |
| 2026-04-24 11:21 | 43.40552 | 0.49106 | 7015 ft | 280 kts | 272° |
| 2026-04-24 11:21 | 43.40653 | 0.46444 | 6723 ft | 278 kts | 272° |
| 2026-04-24 11:21 | 43.40753 | 0.43794 | 6412 ft | 278 kts | 272° |
| 2026-04-24 11:21 | 43.40851 | 0.41146 | 6131 ft | 276 kts | 271° |
| 2026-04-24 11:22 | 43.40606 | 0.38553 | 5817 ft | 273 kts | 249° |
| 2026-04-24 11:22 | 43.39898 | 0.36193 | 5547 ft | 263 kts | 246° |
| 2026-04-24 11:22 | 43.39167 | 0.33893 | 5171 ft | 261 kts | 245° |
| 2026-04-24 11:22 | 43.38449 | 0.31624 | 4878 ft | 256 kts | 245° |
| 2026-04-24 11:23 | 43.37882 | 0.29340 | 4588 ft | 251 kts | 262° |
| 2026-04-24 11:23 | 43.37847 | 0.26968 | 4438 ft | 243 kts | 270° |
| 2026-04-24 11:23 | 43.37906 | 0.24693 | 4258 ft | 234 kts | 271° |
| 2026-04-24 11:23 | 43.37975 | 0.22515 | 4146 ft | 223 kts | 271° |
| 2026-04-24 11:24 | 43.38046 | 0.20424 | 3982 ft | 215 kts | 271° |
| 2026-04-24 11:24 | 43.38124 | 0.18377 | 3846 ft | 215 kts | 271° |
| 2026-04-24 11:24 | 43.38182 | 0.16335 | 3731 ft | 210 kts | 263° |
| 2026-04-24 11:24 | 43.37749 | 0.14492 | 3656 ft | 201 kts | 240° |
| 2026-04-24 11:25 | 43.37121 | 0.12783 | 3568 ft | 199 kts | 240° |
| 2026-04-24 11:25 | 43.36354 | 0.11227 | 3433 ft | 195 kts | 229° |
| 2026-04-24 11:25 | 43.35550 | 0.09734 | 3395 ft | 195 kts | 230° |
| 2026-04-24 11:25 | 43.34726 | 0.08253 | 3293 ft | 194 kts | 224° |
| 2026-04-24 11:26 | 43.33589 | 0.07364 | 3214 ft | 189 kts | 191° |
| 2026-04-24 11:26 | 43.32330 | 0.06795 | 3166 ft | 193 kts | 202° |
| 2026-04-24 11:26 | 43.31097 | 0.06079 | 3050 ft | 193 kts | 198° |
| 2026-04-24 11:26 | 43.29848 | 0.05446 | 3002 ft | 190 kts | 197° |
| 2026-04-24 11:27 | 43.28611 | 0.04827 | 3023 ft | 190 kts | 198° |
| 2026-04-24 11:27 | 43.27352 | 0.04183 | 2887 ft | 197 kts | 198° |
| 2026-04-24 11:27 | 43.26062 | 0.03532 | 2616 ft | 196 kts | 198° |
| 2026-04-24 11:27 | 43.24787 | 0.02881 | 2356 ft | 195 kts | 198° |
| 2026-04-24 11:28 | 43.23516 | 0.02235 | 2103 ft | 196 kts | 199° |
| 2026-04-24 11:28 | 43.22244 | 0.01590 | 1846 ft | 193 kts | 199° |
| 2026-04-24 11:28 | 43.21001 | 0.00958 | 1605 ft | 186 kts | 199° |
| 2026-04-24 11:28 | 43.19844 | 0.00371 | 1414 ft | 173 kts | 199° |
| 2026-04-24 11:29 | 43.18758 | -0.00179 | 1190 ft | 157 kts | 200° |
| 2026-04-24 11:29 | 43.17926 | -0.00594 | 1217 ft | 96 kts | 200° |
| 2026-04-24 11:29 | 43.17447 | -0.00837 | 1230 ft | 64 kts | 201° |
| 2026-04-24 11:29 | 43.17124 | -0.00984 | 1252 ft | 19 kts | 162° |
| 2026-04-24 11:30 | 43.17087 | -0.00909 | 1254 ft | 7 kts | 109° |
| 2026-04-24 11:30 | 43.17071 | -0.00845 | 1249 ft | 7 kts | 109° |
| 2026-04-24 11:30 | 43.17073 | -0.00782 | 1250 ft | 8 kts | 54° |
| 2026-04-24 11:30 | 43.17134 | -0.00739 | 1256 ft | 13 kts | 21° |
| 2026-04-24 11:31 | 43.17235 | -0.00686 | 1242 ft | 18 kts | 21° |
| 2026-04-24 11:31 | 43.17365 | -0.00622 | 1232 ft | 22 kts | 20° |
| 2026-04-24 11:31 | 43.17513 | -0.00548 | 1226 ft | 23 kts | 20° |
| 2026-04-24 11:31 | 43.17650 | -0.00467 | 1222 ft | 17 kts | 27° |
| 2026-04-24 11:32 | 43.17755 | -0.00385 | 1219 ft | 18 kts | 31° |
| 2026-04-24 11:32 | 43.17862 | -0.00306 | 1216 ft | 17 kts | 28° |
| 2026-04-24 11:32 | 43.17964 | -0.00229 | 1213 ft | 16 kts | 28° |
| 2026-04-24 11:32 | 43.18063 | -0.00153 | 1210 ft | 16 kts | 30° |
| 2026-04-24 11:33 | 43.18164 | -0.00076 | 1206 ft | 17 kts | 28° |
| 2026-04-24 11:33 | 43.18270 | 0.00003 | 1203 ft | 18 kts | 28° |
| 2026-04-24 11:33 | 43.18382 | 0.00088 | 1199 ft | 15 kts | 29° |
| 2026-04-24 11:33 | 43.18453 | 0.00121 | 1196 ft | 8 kts | 335° |
| 2026-04-24 11:34 | 43.18480 | 0.00055 | 1196 ft | 8 kts | 285° |
| 2026-04-24 11:34 | 43.18494 | -0.00018 | 1196 ft | 8 kts | 285° |
| 2026-04-24 11:34 | 43.18538 | -0.00038 | 1195 ft | 8 kts | 21° |
| 2026-04-24 11:34 | 43.18577 | 0.00012 | 1195 ft | 8 kts | 86° |
| 2026-04-24 11:35 | 43.18561 | 0.00088 | 1195 ft | 8 kts | 107° |
| 2026-04-24 11:35 | 43.18547 | 0.00143 | 1195 ft | 1 kts | 129° |
| 2026-04-24 11:35 | 43.18536 | 0.00142 | 1195 ft | 2 kts | 192° |
| 2026-04-24 11:35 | 43.18519 | 0.00137 | 1195 ft | 0 kts | 193° |